Time;durP1;ratioP1;P1;durP2;ratioP2;P2;SDS_P1;SDS_P2;PMS_P1;PMS_P2;Temp;Humidity;BMP_temperature;BMP_pressure;BME280_temperature;BME280_humidity;BME280_pressure;Samples;Min_cycle;Max_cycle;Signal;HPM_P1;HPM_P2
2024/01/31 00:03:03;;;;;;;23.60;14.70;;;;;;;;;;103740;1289;545907;-72
2024/01/31 00:06:41;;;;;;;20.80;13.70;;;;;;;;;;103525;1291;545698;-70
2024/01/31 00:10:18;;;;;;;24.50;15.90;;;;;;;;;;103690;1289;545046;-73
2024/01/31 00:13:57;;;;;;;22.10;14.70;;;;;;;;;;103824;1290;544887;-72
2024/01/31 00:17:33;;;;;;;23.40;15.40;;;;;;;;;;103642;1292;545039;-72
2024/01/31 00:21:12;;;;;;;21.50;14.30;;;;;;;;;;103648;1291;546015;-72
2024/01/31 00:24:48;;;;;;;20.60;13.80;;;;;;;;;;103801;1290;545121;-72
2024/01/31 00:28:27;;;;;;;22.10;14.50;;;;;;;;;;103322;1297;545027;-72
2024/01/31 00:32:04;;;;;;;21.70;14.50;;;;;;;;;;103659;1289;544827;-72
2024/01/31 00:35:41;;;;;;;23.40;15.60;;;;;;;;;;103663;1290;545175;-72
2024/01/31 00:39:20;;;;;;;23.10;15.40;;;;;;;;;;103672;1292;545497;-72
2024/01/31 00:42:56;;;;;;;25.30;15.50;;;;;;;;;;103744;1291;545244;-72
2024/01/31 00:46:52;;;;;;;26.10;16.50;;;;;;;;;;103628;1295;547840;-72
2024/01/31 00:50:12;;;;;;;23.30;16.00;;;;;;;;;;103654;1289;545091;-72
2024/01/31 00:53:48;;;;;;;24.10;16.40;;;;;;;;;;103671;1291;544767;-72
2024/01/31 00:57:25;;;;;;;24.20;15.90;;;;;;;;;;104079;1286;544722;-71
2024/01/31 01:01:03;;;;;;;24.70;15.40;;;;;;;;;;103710;1290;545025;-72
2024/01/31 01:04:42;;;;;;;21.80;14.70;;;;;;;;;;103724;1289;545028;-72
2024/01/31 01:08:18;;;;;;;23.90;15.30;;;;;;;;;;103676;1292;545075;-72
2024/01/31 01:11:55;;;;;;;26.40;17.50;;;;;;;;;;103738;1292;544952;-72
2024/01/31 01:15:33;;;;;;;23.70;15.70;;;;;;;;;;103783;1289;544768;-72
2024/01/31 01:19:11;;;;;;;21.40;14.30;;;;;;;;;;103746;1292;544977;-72
2024/01/31 01:22:48;;;;;;;23.40;14.40;;;;;;;;;;103763;1291;545540;-72
2024/01/31 01:26:31;;;;;;;19.70;14.30;;;;;;;;;;103630;1289;548046;-72
2024/01/31 01:30:03;;;;;;;20.60;14.50;;;;;;;;;;103640;1291;545691;-73
2024/01/31 01:33:41;;;;;;;22.80;14.50;;;;;;;;;;103753;1292;544973;-72
2024/01/31 01:37:23;;;;;;;19.40;13.40;;;;;;;;;;103610;1294;547955;-72
2024/01/31 01:40:55;;;;;;;21.90;14.70;;;;;;;;;;103621;1295;544808;-72
2024/01/31 01:44:33;;;;;;;20.90;14.40;;;;;;;;;;103692;1292;544979;-71
2024/01/31 01:48:11;;;;;;;21.70;14.70;;;;;;;;;;103937;1292;544965;-73
2024/01/31 01:51:44;;;;;;;22.30;15.00;;;;;;;;;;103804;1295;545428;-72
2024/01/31 01:55:22;;;;;;;20.30;13.60;;;;;;;;;;103914;1289;546137;-72
2024/01/31 01:59:02;;;;;;;20.00;14.40;;;;;;;;;;104037;1289;544797;-72
2024/01/31 02:02:40;;;;;;;19.70;14.00;;;;;;;;;;103758;1291;544797;-72
2024/01/31 02:06:17;;;;;;;21.60;14.90;;;;;;;;;;103644;1289;546405;-72
2024/01/31 02:09:55;;;;;;;23.40;15.90;;;;;;;;;;103682;1289;545648;-72
2024/01/31 02:13:32;;;;;;;22.00;14.80;;;;;;;;;;103801;1289;544708;-72
2024/01/31 02:17:15;;;;;;;21.80;14.90;;;;;;;;;;103532;1291;548614;-73
2024/01/31 02:20:47;;;;;;;22.40;15.60;;;;;;;;;;103903;1289;545298;-72
2024/01/31 02:24:25;;;;;;;22.20;15.30;;;;;;;;;;103779;1289;545001;-73
2024/01/31 02:28:01;;;;;;;21.10;14.00;;;;;;;;;;103826;1289;544998;-72
2024/01/31 02:31:40;;;;;;;20.50;13.80;;;;;;;;;;103784;1289;545127;-72
2024/01/31 02:35:13;;;;;;;24.40;15.10;;;;;;;;;;103702;1289;544908;-72
2024/01/31 02:38:51;;;;;;;24.00;15.70;;;;;;;;;;103752;1294;545706;-72
2024/01/31 02:42:32;;;;;;;25.10;16.40;;;;;;;;;;103712;1292;544974;-72
2024/01/31 02:46:09;;;;;;;23.20;16.10;;;;;;;;;;103646;1291;545641;-72
2024/01/31 02:49:52;;;;;;;22.40;15.60;;;;;;;;;;103506;1295;547958;-72
2024/01/31 02:53:24;;;;;;;24.20;14.60;;;;;;;;;;103648;1296;545998;-72
2024/01/31 02:57:01;;;;;;;23.40;15.00;;;;;;;;;;103719;1292;545543;-72
2024/01/31 03:00:40;;;;;;;24.10;16.30;;;;;;;;;;104476;1285;545921;-72
2024/01/31 03:04:18;;;;;;;22.60;16.90;;;;;;;;;;103896;1291;545011;-72
2024/01/31 03:08:00;;;;;;;24.10;15.90;;;;;;;;;;103638;1290;547832;-72
2024/01/31 03:11:31;;;;;;;23.50;16.00;;;;;;;;;;103832;1289;544866;-72
2024/01/31 03:15:11;;;;;;;23.30;15.30;;;;;;;;;;103688;1289;545293;-72
2024/01/31 03:18:46;;;;;;;22.20;15.70;;;;;;;;;;103777;1289;545994;-72
2024/01/31 03:22:24;;;;;;;22.90;16.20;;;;;;;;;;103910;1289;544766;-73
2024/01/31 03:26:03;;;;;;;22.00;14.50;;;;;;;;;;103724;1290;545414;-72
2024/01/31 03:29:39;;;;;;;20.90;14.80;;;;;;;;;;103727;1294;545201;-72
2024/01/31 03:33:16;;;;;;;20.40;15.30;;;;;;;;;;103737;1289;545673;-72
2024/01/31 03:36:55;;;;;;;21.70;15.20;;;;;;;;;;103601;1291;544997;-72
2024/01/31 03:40:27;;;;;;;22.10;15.80;;;;;;;;;;103680;1295;545840;-72
2024/01/31 03:44:10;;;;;;;22.00;14.90;;;;;;;;;;103736;1292;545032;-72
2024/01/31 03:47:47;;;;;;;22.40;14.10;;;;;;;;;;103822;1292;544836;-72
2024/01/31 03:51:24;;;;;;;19.90;14.20;;;;;;;;;;103589;1298;544970;-72
2024/01/31 03:55:02;;;;;;;22.30;15.20;;;;;;;;;;103804;1289;544851;-72
2024/01/31 03:58:39;;;;;;;23.20;16.00;;;;;;;;;;104036;1289;545043;-72
2024/01/31 04:02:16;;;;;;;24.00;15.30;;;;;;;;;;103651;1292;544989;-72
2024/01/31 04:05:55;;;;;;;19.40;13.70;;;;;;;;;;103961;1288;545008;-72
2024/01/31 04:09:31;;;;;;;20.00;14.00;;;;;;;;;;103732;1292;544977;-72
2024/01/31 04:13:09;;;;;;;22.90;15.00;;;;;;;;;;103749;1292;545403;-72
2024/01/31 04:16:47;;;;;;;23.50;16.30;;;;;;;;;;103672;1292;544764;-72
2024/01/31 04:20:24;;;;;;;23.90;15.70;;;;;;;;;;103604;1297;545850;-72
2024/01/31 04:23:57;;;;;;;24.60;15.00;;;;;;;;;;103758;1292;544760;-72
2024/01/31 04:27:39;;;;;;;24.70;15.80;;;;;;;;;;103689;1291;545128;-71
2024/01/31 04:31:16;;;;;;;22.80;15.90;;;;;;;;;;103824;1289;544789;-72
2024/01/31 04:34:54;;;;;;;25.20;17.10;;;;;;;;;;103631;1293;544829;-72
2024/01/31 04:38:30;;;;;;;22.80;16.00;;;;;;;;;;103944;1289;544836;-72
2024/01/31 04:42:09;;;;;;;22.20;15.20;;;;;;;;;;103646;1292;544852;-71
2024/01/31 04:45:46;;;;;;;23.80;15.70;;;;;;;;;;103790;1292;545640;-72
2024/01/31 04:49:25;;;;;;;25.40;16.70;;;;;;;;;;103634;1289;544808;-72
2024/01/31 04:53:00;;;;;;;25.70;17.50;;;;;;;;;;103744;1290;544647;-72
2024/01/31 04:56:38;;;;;;;23.90;16.40;;;;;;;;;;103583;1291;544808;-72
2024/01/31 05:00:15;;;;;;;24.10;15.60;;;;;;;;;;103750;1289;545921;-72
2024/01/31 05:03:57;;;;;;;23.00;15.50;;;;;;;;;;103705;1289;545098;-72
2024/01/31 05:07:30;;;;;;;22.80;15.80;;;;;;;;;;103736;1291;545529;-72
2024/01/31 05:11:12;;;;;;;23.50;15.90;;;;;;;;;;103733;1288;545055;-72
2024/01/31 05:14:45;;;;;;;26.20;15.90;;;;;;;;;;103628;1291;545154;-72
2024/01/31 05:18:23;;;;;;;21.40;15.80;;;;;;;;;;103578;1291;546029;-72
2024/01/31 05:22:00;;;;;;;22.10;15.40;;;;;;;;;;103770;1290;545302;-72
2024/01/31 05:25:38;;;;;;;25.80;16.30;;;;;;;;;;103714;1292;545252;-72
2024/01/31 05:29:15;;;;;;;22.80;16.30;;;;;;;;;;103716;1292;545384;-72
2024/01/31 05:32:53;;;;;;;25.80;16.50;;;;;;;;;;103659;1291;544786;-72
2024/01/31 05:36:30;;;;;;;24.30;15.50;;;;;;;;;;104005;1288;545495;-72
2024/01/31 05:40:09;;;;;;;23.90;15.90;;;;;;;;;;103783;1289;544927;-72
2024/01/31 05:43:45;;;;;;;22.60;14.70;;;;;;;;;;103952;1293;544927;-72
2024/01/31 05:47:23;;;;;;;24.70;16.60;;;;;;;;;;103795;1292;544821;-72
2024/01/31 05:51:00;;;;;;;24.70;16.70;;;;;;;;;;104233;1286;544970;-72
2024/01/31 05:54:38;;;;;;;25.90;17.10;;;;;;;;;;103681;1302;546333;-72
2024/01/31 05:58:15;;;;;;;26.20;17.40;;;;;;;;;;103739;1291;545508;-72
2024/01/31 06:01:52;;;;;;;25.80;17.30;;;;;;;;;;104230;1285;544985;-73
2024/01/31 06:05:30;;;;;;;25.70;18.00;;;;;;;;;;103807;1294;545001;-72
2024/01/31 06:09:08;;;;;;;25.30;17.60;;;;;;;;;;103744;1290;545678;-73
2024/01/31 06:12:44;;;;;;;24.00;16.70;;;;;;;;;;103793;1289;544763;-71
2024/01/31 06:16:23;;;;;;;24.00;15.90;;;;;;;;;;103793;1289;544803;-72
2024/01/31 06:19:59;;;;;;;26.40;16.90;;;;;;;;;;103715;1289;544826;-72
2024/01/31 06:23:37;;;;;;;25.90;18.40;;;;;;;;;;103569;1291;545965;-72
2024/01/31 06:27:14;;;;;;;24.50;17.20;;;;;;;;;;103683;1292;545257;-72
2024/01/31 06:30:59;;;;;;;28.10;18.50;;;;;;;;;;103600;1291;545805;-71
2024/01/31 06:34:29;;;;;;;28.80;19.10;;;;;;;;;;103798;1292;544770;-72
2024/01/31 06:38:08;;;;;;;31.70;21.00;;;;;;;;;;103736;1289;545130;-73
2024/01/31 06:41:40;;;;;;;33.00;22.90;;;;;;;;;;103760;1289;545133;-74
2024/01/31 06:45:24;;;;;;;26.90;19.00;;;;;;;;;;103625;1295;545347;-72
2024/01/31 06:48:59;;;;;;;27.40;18.20;;;;;;;;;;103687;1292;546602;-72
2024/01/31 06:52:33;;;;;;;24.60;16.90;;;;;;;;;;103973;1289;544904;-72
2024/01/31 06:56:19;;;;;;;26.60;18.10;;;;;;;;;;103805;1288;544939;-72
2024/01/31 06:59:52;;;;;;;30.30;20.10;;;;;;;;;;103911;1289;546288;-72
2024/01/31 07:03:30;;;;;;;29.40;19.60;;;;;;;;;;104251;1286;545127;-72
2024/01/31 07:07:06;;;;;;;30.00;19.60;;;;;;;;;;103685;1295;545029;-73
2024/01/31 07:10:44;;;;;;;29.80;20.00;;;;;;;;;;104485;1282;545001;-71
2024/01/31 07:14:22;;;;;;;30.80;20.60;;;;;;;;;;103617;1303;545582;-71
2024/01/31 07:17:59;;;;;;;32.70;21.00;;;;;;;;;;104019;1289;544894;-72
2024/01/31 07:21:43;;;;;;;29.50;18.50;;;;;;;;;;103426;1292;547832;-71
2024/01/31 07:25:15;;;;;;;29.50;19.00;;;;;;;;;;103836;1292;545109;-72
2024/01/31 07:28:52;;;;;;;31.40;19.80;;;;;;;;;;103710;1289;545028;-72
2024/01/31 07:32:29;;;;;;;31.90;21.30;;;;;;;;;;103668;1291;545997;-73
2024/01/31 07:36:07;;;;;;;33.00;21.30;;;;;;;;;;103716;1290;544992;-72
2024/01/31 07:39:44;;;;;;;33.50;22.60;;;;;;;;;;103703;1292;544603;-72
2024/01/31 07:43:18;;;;;;;33.10;21.30;;;;;;;;;;104445;1282;544866;-72
2024/01/31 07:47:02;;;;;;;35.50;21.70;;;;;;;;;;103800;1289;544979;-70
2024/01/31 07:50:37;;;;;;;31.80;21.80;;;;;;;;;;103627;1291;546019;-72
2024/01/31 07:54:15;;;;;;;30.90;20.10;;;;;;;;;;103732;1292;544951;-72
2024/01/31 07:57:51;;;;;;;29.10;19.90;;;;;;;;;;103701;1291;545731;-72
2024/01/31 08:01:28;;;;;;;27.50;18.50;;;;;;;;;;103763;1289;545313;-72
2024/01/31 08:05:06;;;;;;;31.50;21.80;;;;;;;;;;103546;1293;544901;-72
2024/01/31 08:08:45;;;;;;;34.80;23.10;;;;;;;;;;104126;1286;545096;-72
2024/01/31 08:12:27;;;;;;;32.90;23.20;;;;;;;;;;103421;1292;547819;-72
2024/01/31 08:15:58;;;;;;;31.50;22.10;;;;;;;;;;104027;1292;544946;-72
2024/01/31 08:19:35;;;;;;;33.20;20.50;;;;;;;;;;103620;1291;545165;-72
2024/01/31 08:23:13;;;;;;;34.00;22.00;;;;;;;;;;103675;1292;544971;-73
2024/01/31 08:26:51;;;;;;;32.40;21.10;;;;;;;;;;103797;1292;544742;-72
2024/01/31 08:30:28;;;;;;;35.20;24.30;;;;;;;;;;103827;1292;544770;-72
2024/01/31 08:34:06;;;;;;;49.10;29.80;;;;;;;;;;103735;1291;545963;-71
2024/01/31 08:37:43;;;;;;;31.50;21.10;;;;;;;;;;103710;1289;545409;-71
2024/01/31 08:41:20;;;;;;;28.30;18.00;;;;;;;;;;103709;1289;544932;-72
2024/01/31 08:44:58;;;;;;;26.80;18.60;;;;;;;;;;103741;1291;545420;-72
2024/01/31 08:48:35;;;;;;;31.10;19.30;;;;;;;;;;103620;1293;545856;-72
2024/01/31 08:52:13;;;;;;;32.60;22.70;;;;;;;;;;103750;1289;545079;-72
2024/01/31 08:55:51;;;;;;;35.20;22.00;;;;;;;;;;103614;1289;545340;-72
2024/01/31 08:59:28;;;;;;;33.70;22.80;;;;;;;;;;103798;1289;544853;-73
2024/01/31 09:03:06;;;;;;;49.00;27.80;;;;;;;;;;103775;1290;544913;-73
2024/01/31 09:06:43;;;;;;;37.10;24.70;;;;;;;;;;103819;1292;545415;-72
2024/01/31 09:10:21;;;;;;;31.40;21.90;;;;;;;;;;103740;1289;544877;-73
2024/01/31 09:13:58;;;;;;;32.50;22.10;;;;;;;;;;103787;1289;545407;-72
2024/01/31 09:17:41;;;;;;;33.00;21.50;;;;;;;;;;103457;1305;545473;-72
2024/01/31 09:21:26;;;;;;;29.10;19.00;;;;;;;;;;103766;1292;545031;-72
2024/01/31 09:24:50;;;;;;;27.40;17.90;;;;;;;;;;103594;1291;544991;-72
2024/01/31 09:28:27;;;;;;;27.80;18.30;;;;;;;;;;103845;1289;545497;-72
2024/01/31 09:32:05;;;;;;;28.50;19.10;;;;;;;;;;104010;1288;544755;-72
2024/01/31 09:35:42;;;;;;;28.10;20.80;;;;;;;;;;103824;1289;545005;-72
2024/01/31 09:39:19;;;;;;;26.50;18.30;;;;;;;;;;103759;1289;544982;-72
2024/01/31 09:42:57;;;;;;;29.50;18.80;;;;;;;;;;103778;1291;545496;-70
2024/01/31 09:46:35;;;;;;;26.60;18.20;;;;;;;;;;103762;1289;545654;-72
2024/01/31 09:50:13;;;;;;;25.40;17.70;;;;;;;;;;103739;1289;544840;-72
2024/01/31 09:53:52;;;;;;;26.00;16.90;;;;;;;;;;103758;1291;544767;-72
2024/01/31 09:57:28;;;;;;;23.90;17.20;;;;;;;;;;103709;1290;545886;-73
2024/01/31 10:01:09;;;;;;;30.60;20.80;;;;;;;;;;103728;1289;544850;-73
2024/01/31 10:04:49;;;;;;;28.10;20.00;;;;;;;;;;103808;1289;545067;-73
2024/01/31 10:08:21;;;;;;;37.70;27.40;;;;;;;;;;103578;1292;545698;-72
2024/01/31 10:11:57;;;;;;;33.60;25.80;;;;;;;;;;103742;1295;545042;-72
2024/01/31 10:15:36;;;;;;;49.20;32.50;;;;;;;;;;103756;1289;544759;-72
2024/01/31 10:19:15;;;;;;;37.30;24.30;;;;;;;;;;103794;1289;545568;-71
2024/01/31 10:23:00;;;;;;;33.50;19.20;;;;;;;;;;103470;1292;547878;-71
2024/01/31 10:26:28;;;;;;;26.50;17.60;;;;;;;;;;103819;1291;544903;-71
2024/01/31 10:30:07;;;;;;;25.10;16.40;;;;;;;;;;103715;1292;545939;-71
2024/01/31 10:33:42;;;;;;;28.40;16.60;;;;;;;;;;103812;1289;544951;-71
2024/01/31 10:37:21;;;;;;;22.60;13.60;;;;;;;;;;103698;1290;545076;-70
2024/01/31 10:40:58;;;;;;;17.80;10.80;;;;;;;;;;103771;1292;545525;-70
2024/01/31 10:44:36;;;;;;;26.70;12.60;;;;;;;;;;103681;1291;545018;-72
2024/01/31 10:48:11;;;;;;;18.50;11.40;;;;;;;;;;103769;1289;545319;-71
2024/01/31 10:51:50;;;;;;;25.10;15.80;;;;;;;;;;103692;1289;545063;-70
2024/01/31 10:55:27;;;;;;;23.30;13.90;;;;;;;;;;103763;1291;544996;-70
2024/01/31 10:59:05;;;;;;;19.70;10.80;;;;;;;;;;103629;1291;544884;-70
2024/01/31 11:02:42;;;;;;;24.30;12.30;;;;;;;;;;103766;1289;545086;-72
2024/01/31 11:06:19;;;;;;;20.70;10.70;;;;;;;;;;103737;1292;544768;-70
2024/01/31 11:09:57;;;;;;;17.60;9.80;;;;;;;;;;104297;1286;544897;-70
2024/01/31 11:13:35;;;;;;;20.30;10.40;;;;;;;;;;104144;1286;546128;-71
2024/01/31 11:17:08;;;;;;;19.10;9.80;;;;;;;;;;103734;1291;546122;-73
2024/01/31 11:20:50;;;;;;;19.20;10.10;;;;;;;;;;103604;1295;546187;-71
2024/01/31 11:24:27;;;;;;;18.30;10.70;;;;;;;;;;103685;1291;544928;-70
2024/01/31 11:28:04;;;;;;;15.40;8.60;;;;;;;;;;103620;1290;544771;-70
2024/01/31 11:31:41;;;;;;;14.70;8.80;;;;;;;;;;103885;1292;545063;-70
2024/01/31 11:35:19;;;;;;;18.20;10.00;;;;;;;;;;103618;1289;545684;-72
2024/01/31 11:38:56;;;;;;;15.40;8.50;;;;;;;;;;103690;1291;544848;-70
2024/01/31 11:42:34;;;;;;;12.10;8.00;;;;;;;;;;103726;1294;545070;-72
2024/01/31 11:46:11;;;;;;;13.70;8.40;;;;;;;;;;103826;1289;546007;-73
2024/01/31 11:49:48;;;;;;;12.00;7.40;;;;;;;;;;103789;1291;544980;-70
2024/01/31 11:53:22;;;;;;;14.10;8.50;;;;;;;;;;103767;1289;544876;-70
2024/01/31 11:57:04;;;;;;;14.90;9.20;;;;;;;;;;103754;1289;545569;-70
2024/01/31 12:00:41;;;;;;;16.50;9.70;;;;;;;;;;103785;1289;544946;-70
2024/01/31 12:04:18;;;;;;;20.10;13.50;;;;;;;;;;103718;1289;545041;-70
2024/01/31 12:07:59;;;;;;;18.30;12.30;;;;;;;;;;103991;1289;544712;-70
2024/01/31 12:11:33;;;;;;;13.20;8.50;;;;;;;;;;103732;1290;544870;-71
2024/01/31 12:15:12;;;;;;;14.60;9.20;;;;;;;;;;104251;1288;545895;-71
2024/01/31 12:18:59;;;;;;;17.20;9.60;;;;;;;;;;103736;1292;545352;-73
2024/01/31 12:22:25;;;;;;;17.20;10.20;;;;;;;;;;103798;1292;545646;-72
2024/01/31 12:26:03;;;;;;;17.20;9.80;;;;;;;;;;103814;1290;545278;-73
2024/01/31 12:29:40;;;;;;;17.90;9.30;;;;;;;;;;103789;1289;545129;-72
2024/01/31 12:33:18;;;;;;;15.00;8.20;;;;;;;;;;103729;1295;545496;-72
2024/01/31 12:36:55;;;;;;;18.50;11.10;;;;;;;;;;103723;1294;544923;-72
2024/01/31 12:40:33;;;;;;;13.50;8.60;;;;;;;;;;103720;1289;545295;-71
2024/01/31 12:44:11;;;;;;;13.50;8.40;;;;;;;;;;103726;1289;545018;-73
2024/01/31 12:47:48;;;;;;;13.90;7.80;;;;;;;;;;103572;1291;544796;-73
2024/01/31 12:51:25;;;;;;;14.00;8.30;;;;;;;;;;104163;1288;545051;-72
2024/01/31 12:54:59;;;;;;;14.40;8.00;;;;;;;;;;103720;1291;545472;-73
2024/01/31 12:59:00;;;;;;;16.70;9.80;;;;;;;;;;103595;1295;548136;-72
2024/01/31 13:02:17;;;;;;;14.00;8.20;;;;;;;;;;103737;1292;544784;-70
2024/01/31 13:05:55;;;;;;;16.10;8.80;;;;;;;;;;103743;1290;544880;-73
2024/01/31 13:09:33;;;;;;;14.90;8.50;;;;;;;;;;103736;1290;544913;-71
2024/01/31 13:13:10;;;;;;;18.90;9.50;;;;;;;;;;103794;1292;545025;-73
2024/01/31 13:16:48;;;;;;;15.50;8.90;;;;;;;;;;103759;1290;544791;-72
2024/01/31 13:20:25;;;;;;;14.60;7.70;;;;;;;;;;104024;1286;545013;-70
2024/01/31 13:24:03;;;;;;;15.20;8.80;;;;;;;;;;103476;1298;545107;-70
2024/01/31 13:27:40;;;;;;;13.50;7.20;;;;;;;;;;103473;1294;544799;-72
2024/01/31 13:31:19;;;;;;;13.10;6.70;;;;;;;;;;103604;1292;546012;-72
2024/01/31 13:34:55;;;;;;;14.90;7.90;;;;;;;;;;103806;1289;544953;-73
2024/01/31 13:38:33;;;;;;;13.70;7.10;;;;;;;;;;103826;1292;545515;-72
2024/01/31 13:42:09;;;;;;;18.80;8.60;;;;;;;;;;104115;1289;545487;-73
2024/01/31 13:45:47;;;;;;;21.50;8.90;;;;;;;;;;103609;1291;544861;-72
2024/01/31 13:49:25;;;;;;;37.90;14.40;;;;;;;;;;103675;1291;544960;-70
2024/01/31 13:53:02;;;;;;;26.40;13.30;;;;;;;;;;103686;1296;545490;-69
2024/01/31 13:56:39;;;;;;;19.20;12.00;;;;;;;;;;103727;1289;544779;-70
2024/01/31 14:00:14;;;;;;;13.40;9.10;;;;;;;;;;103982;1289;546204;-72
2024/01/31 14:03:54;;;;;;;20.10;9.90;;;;;;;;;;103664;1300;545340;-71
2024/01/31 14:07:32;;;;;;;19.00;9.40;;;;;;;;;;103952;1289;544974;-70
2024/01/31 14:11:12;;;;;;;20.50;10.60;;;;;;;;;;103657;1291;544966;-70
2024/01/31 14:14:48;;;;;;;22.30;11.60;;;;;;;;;;103716;1292;544746;-71
2024/01/31 14:18:25;;;;;;;20.80;10.70;;;;;;;;;;103784;1292;545550;-72
2024/01/31 14:22:02;;;;;;;15.10;8.20;;;;;;;;;;103694;1291;545214;-71
2024/01/31 14:25:40;;;;;;;22.30;12.10;;;;;;;;;;103780;1292;544785;-72
2024/01/31 14:29:21;;;;;;;23.20;9.90;;;;;;;;;;104261;1283;544997;-70
2024/01/31 14:32:54;;;;;;;18.00;9.70;;;;;;;;;;103670;1292;545094;-72
2024/01/31 14:36:37;;;;;;;15.70;8.60;;;;;;;;;;103854;1289;545030;-72
2024/01/31 14:40:10;;;;;;;14.80;8.90;;;;;;;;;;103726;1292;544870;-72
2024/01/31 14:43:48;;;;;;;14.70;8.70;;;;;;;;;;103796;1295;545100;-71
2024/01/31 14:47:24;;;;;;;16.60;9.80;;;;;;;;;;103903;1290;544970;-70
2024/01/31 14:51:02;;;;;;;18.60;11.00;;;;;;;;;;103678;1292;544872;-70
2024/01/31 14:54:39;;;;;;;24.50;11.90;;;;;;;;;;103953;1296;545733;-70
2024/01/31 14:58:17;;;;;;;23.60;13.40;;;;;;;;;;103642;1292;545541;-69
2024/01/31 15:01:54;;;;;;;25.70;14.50;;;;;;;;;;103832;1289;544792;-70
2024/01/31 15:05:32;;;;;;;30.20;18.80;;;;;;;;;;103766;1291;546183;-70
2024/01/31 15:09:11;;;;;;;22.60;14.40;;;;;;;;;;103728;1291;545454;-72
2024/01/31 15:12:47;;;;;;;23.50;15.70;;;;;;;;;;103766;1292;545446;-72
2024/01/31 15:16:24;;;;;;;23.10;15.10;;;;;;;;;;103749;1292;545672;-72
2024/01/31 15:20:03;;;;;;;25.50;16.30;;;;;;;;;;103733;1289;544779;-71
2024/01/31 15:23:39;;;;;;;22.70;14.00;;;;;;;;;;103689;1291;544752;-70
2024/01/31 15:27:17;;;;;;;26.30;16.00;;;;;;;;;;103758;1292;546108;-70
2024/01/31 15:30:54;;;;;;;70.20;32.70;;;;;;;;;;103845;1288;544777;-71
2024/01/31 15:34:32;;;;;;;55.00;26.20;;;;;;;;;;103700;1291;544920;-69
2024/01/31 15:38:09;;;;;;;82.80;41.00;;;;;;;;;;103904;1296;544873;-70
2024/01/31 15:41:47;;;;;;;51.80;27.70;;;;;;;;;;103808;1289;544938;-73
2024/01/31 15:45:24;;;;;;;46.20;27.50;;;;;;;;;;103782;1292;544969;-69
2024/01/31 15:49:02;;;;;;;37.40;22.10;;;;;;;;;;103627;1292;544889;-72
2024/01/31 15:52:39;;;;;;;29.10;17.70;;;;;;;;;;104163;1285;545084;-71
2024/01/31 15:56:17;;;;;;;32.70;21.20;;;;;;;;;;103711;1292;545022;-71
2024/01/31 15:59:54;;;;;;;55.60;39.80;;;;;;;;;;103698;1292;546570;-72
2024/01/31 16:03:31;;;;;;;45.50;27.90;;;;;;;;;;103776;1289;544808;-70
2024/01/31 16:07:08;;;;;;;53.50;34.50;;;;;;;;;;103602;1295;545335;-70
2024/01/31 16:10:46;;;;;;;60.80;35.20;;;;;;;;;;103843;1292;545056;-72
2024/01/31 16:14:24;;;;;;;48.00;31.90;;;;;;;;;;104051;1289;546190;-72
2024/01/31 16:18:07;;;;;;;48.10;29.50;;;;;;;;;;103833;1292;545776;-72
2024/01/31 16:21:38;;;;;;;42.90;27.30;;;;;;;;;;103721;1293;545161;-72
2024/01/31 16:25:16;;;;;;;41.00;26.00;;;;;;;;;;103719;1293;545694;-71
2024/01/31 16:28:53;;;;;;;57.40;36.60;;;;;;;;;;103814;1295;544986;-71
2024/01/31 16:32:31;;;;;;;66.30;40.40;;;;;;;;;;103742;1291;546092;-73
2024/01/31 16:36:16;;;;;;;67.10;39.10;;;;;;;;;;103847;1289;544859;-72
2024/01/31 16:39:46;;;;;;;65.20;39.90;;;;;;;;;;103777;1291;544776;-71
2024/01/31 16:43:23;;;;;;;73.90;43.40;;;;;;;;;;103776;1288;545005;-71
2024/01/31 16:47:02;;;;;;;60.00;38.80;;;;;;;;;;103636;1295;545064;-71
2024/01/31 16:50:37;;;;;;;56.70;34.40;;;;;;;;;;103638;1291;544935;-72
2024/01/31 16:54:15;;;;;;;67.20;41.80;;;;;;;;;;103686;1292;544800;-72
2024/01/31 16:57:53;;;;;;;58.50;36.70;;;;;;;;;;103757;1302;545465;-72
2024/01/31 17:01:31;;;;;;;54.10;33.20;;;;;;;;;;104137;1286;544823;-71
2024/01/31 17:05:08;;;;;;;52.40;33.00;;;;;;;;;;103807;1289;545611;-72
2024/01/31 17:08:45;;;;;;;61.40;35.80;;;;;;;;;;103689;1295;546196;-72
2024/01/31 17:12:23;;;;;;;54.60;33.30;;;;;;;;;;103838;1288;544921;-73
2024/01/31 17:16:00;;;;;;;44.90;30.30;;;;;;;;;;103743;1289;545149;-72
2024/01/31 17:19:38;;;;;;;44.00;30.30;;;;;;;;;;103829;1289;545578;-72
2024/01/31 17:23:16;;;;;;;52.00;34.50;;;;;;;;;;103700;1291;545214;-71
2024/01/31 17:26:48;;;;;;;67.60;41.60;;;;;;;;;;103966;1289;545892;-72
2024/01/31 17:30:30;;;;;;;67.80;43.60;;;;;;;;;;104159;1286;545444;-72
2024/01/31 17:34:08;;;;;;;65.60;42.60;;;;;;;;;;103630;1291;544966;-72
2024/01/31 17:37:45;;;;;;;63.40;40.60;;;;;;;;;;103712;1295;545396;-72
2024/01/31 17:41:22;;;;;;;58.20;38.00;;;;;;;;;;103760;1289;545020;-71
2024/01/31 17:45:00;;;;;;;54.80;36.60;;;;;;;;;;103766;1292;545140;-71
2024/01/31 17:48:33;;;;;;;75.10;45.10;;;;;;;;;;103754;1302;545468;-72
2024/01/31 17:52:15;;;;;;;81.30;48.90;;;;;;;;;;103823;1290;544873;-72
2024/01/31 17:55:54;;;;;;;74.60;42.60;;;;;;;;;;103803;1296;546038;-71
2024/01/31 17:59:29;;;;;;;52.00;34.90;;;;;;;;;;103771;1289;545427;-71
2024/01/31 18:03:07;;;;;;;66.80;40.80;;;;;;;;;;103629;1291;545931;-73
2024/01/31 18:06:45;;;;;;;73.60;44.20;;;;;;;;;;103876;1289;545658;-71
2024/01/31 18:10:22;;;;;;;70.20;44.30;;;;;;;;;;103622;1292;545032;-71
2024/01/31 18:13:59;;;;;;;71.90;44.00;;;;;;;;;;104045;1289;544813;-71
2024/01/31 18:17:37;;;;;;;74.70;47.20;;;;;;;;;;103756;1292;545720;-71
2024/01/31 18:21:15;;;;;;;60.10;37.80;;;;;;;;;;103872;1289;545061;-72
2024/01/31 18:24:51;;;;;;;54.90;35.20;;;;;;;;;;104006;1293;544921;-71
2024/01/31 18:28:30;;;;;;;50.30;33.80;;;;;;;;;;103812;1292;545047;-72
2024/01/31 18:32:07;;;;;;;83.40;48.20;;;;;;;;;;103851;1296;544784;-71
2024/01/31 18:35:44;;;;;;;119.50;62.30;;;;;;;;;;103746;1289;544817;-72
2024/01/31 18:39:22;;;;;;;230.40;126.10;;;;;;;;;;103835;1290;545104;-72
2024/01/31 18:42:59;;;;;;;70.10;45.20;;;;;;;;;;103728;1292;544892;-72
2024/01/31 18:46:33;;;;;;;75.90;45.80;;;;;;;;;;103705;1289;545425;-71
2024/01/31 18:50:14;;;;;;;59.70;37.80;;;;;;;;;;103736;1292;544922;-72
2024/01/31 18:53:48;;;;;;;61.70;39.20;;;;;;;;;;104271;1284;545979;-71
2024/01/31 18:57:26;;;;;;;58.90;38.70;;;;;;;;;;104151;1290;545064;-71
2024/01/31 19:01:07;;;;;;;63.30;39.10;;;;;;;;;;103660;1292;545209;-72
2024/01/31 19:04:44;;;;;;;61.20;41.20;;;;;;;;;;103653;1291;544992;-72
2024/01/31 19:08:18;;;;;;;77.50;46.30;;;;;;;;;;103781;1292;545787;-71
2024/01/31 19:12:00;;;;;;;73.10;45.40;;;;;;;;;;103741;1292;545753;-71
2024/01/31 19:15:36;;;;;;;80.00;46.30;;;;;;;;;;103683;1295;546231;-71
2024/01/31 19:19:15;;;;;;;68.80;40.20;;;;;;;;;;103656;1292;545424;-72
2024/01/31 19:22:51;;;;;;;76.20;43.20;;;;;;;;;;103687;1291;545459;-72
2024/01/31 19:26:30;;;;;;;88.20;47.00;;;;;;;;;;104038;1292;545040;-71
2024/01/31 19:30:10;;;;;;;73.10;41.20;;;;;;;;;;103670;1292;544750;-72
2024/01/31 19:33:45;;;;;;;80.80;46.20;;;;;;;;;;103648;1291;546269;-72
2024/01/31 19:37:17;;;;;;;78.60;44.50;;;;;;;;;;103730;1292;545498;-71
2024/01/31 19:41:00;;;;;;;68.10;40.50;;;;;;;;;;103748;1289;544858;-71
2024/01/31 19:44:36;;;;;;;68.20;39.00;;;;;;;;;;103903;1289;544943;-71
2024/01/31 19:48:14;;;;;;;73.50;42.90;;;;;;;;;;104017;1288;545207;-71
2024/01/31 19:51:52;;;;;;;72.50;41.30;;;;;;;;;;103910;1294;545535;-71
2024/01/31 19:55:31;;;;;;;70.50;40.30;;;;;;;;;;103922;1292;544769;-71
2024/01/31 19:59:07;;;;;;;87.60;49.30;;;;;;;;;;103846;1294;545062;-71
2024/01/31 20:02:41;;;;;;;77.60;46.40;;;;;;;;;;104493;1285;544829;-71
2024/01/31 20:06:17;;;;;;;72.30;44.40;;;;;;;;;;103827;1293;545522;-71
2024/01/31 20:09:59;;;;;;;70.70;40.90;;;;;;;;;;104535;1282;544995;-72
2024/01/31 20:13:36;;;;;;;71.70;39.40;;;;;;;;;;103513;1292;545069;-72
2024/01/31 20:17:15;;;;;;;58.00;35.70;;;;;;;;;;103690;1292;544799;-71
2024/01/31 20:20:51;;;;;;;68.50;46.70;;;;;;;;;;103785;1292;545280;-71
2024/01/31 20:24:29;;;;;;;63.00;42.10;;;;;;;;;;103763;1289;544765;-71
2024/01/31 20:28:06;;;;;;;59.90;40.70;;;;;;;;;;103929;1292;544916;-72
2024/01/31 20:31:44;;;;;;;55.00;35.60;;;;;;;;;;103679;1291;545678;-71